createdAt,value
2022-08-20T00:02:11.839Z,3.63
2022-08-20T00:04:41.489Z,4.20
2022-08-20T00:07:09.286Z,4.00
2022-08-20T00:09:37.154Z,3.17
2022-08-20T00:12:06.634Z,5.10
2022-08-20T00:14:35.619Z,4.60
2022-08-20T00:17:04.949Z,3.55
2022-08-20T00:19:32.863Z,4.93
2022-08-20T00:22:00.870Z,5.70
2022-08-20T00:24:28.730Z,3.63
2022-08-20T00:26:56.559Z,4.68
2022-08-20T00:29:24.445Z,4.00
2022-08-20T00:31:52.383Z,3.50
2022-08-20T00:34:20.723Z,4.47
2022-08-20T00:36:48.571Z,4.38
2022-08-20T00:39:16.365Z,3.38
2022-08-20T00:41:44.314Z,3.58
2022-08-20T00:44:19.763Z,3.25
2022-08-20T00:46:47.910Z,3.50
2022-08-20T00:49:22.392Z,4.53
2022-08-20T00:51:55.795Z,3.67
2022-08-20T00:54:39.667Z,4.03
2022-08-20T00:57:12.886Z,3.97
2022-08-20T00:59:42.220Z,3.25
2022-08-20T01:02:13.928Z,3.05
2022-08-20T01:04:46.825Z,5.00
2022-08-20T01:07:14.623Z,5.57
2022-08-20T01:09:58.038Z,3.28
2022-08-20T01:12:29.085Z,5.00
2022-08-20T01:14:59.730Z,3.30
2022-08-20T01:17:29.755Z,3.33
2022-08-20T01:20:08.423Z,3.85
2022-08-20T01:23:07.801Z,3.10
2022-08-20T01:26:00.407Z,3.60
2022-08-20T01:28:41.024Z,3.72
2022-08-20T01:31:12.103Z,3.03
2022-08-20T01:33:40.338Z,3.42
2022-08-20T01:36:10.733Z,2.92
2022-08-20T01:38:41.111Z,3.72
2022-08-20T01:42:09.747Z,3.70
2022-08-20T01:44:39.647Z,3.92
2022-08-20T01:47:27.082Z,3.50
2022-08-20T01:50:01.874Z,3.88
2022-08-20T01:52:48.043Z,4.22
2022-08-20T01:55:15.836Z,3.50
2022-08-20T01:57:43.809Z,4.15
2022-08-20T02:00:20.060Z,4.32
2022-08-20T02:02:49.580Z,3.38
2022-08-20T02:05:18.821Z,3.10
2022-08-20T02:07:47.394Z,5.05
2022-08-20T02:10:17.867Z,3.78
2022-08-20T02:12:45.988Z,3.25
2022-08-20T02:15:14.735Z,3.97
2022-08-20T02:17:44.855Z,3.25
2022-08-20T02:20:20.081Z,3.45
2022-08-20T02:22:58.819Z,3.28
2022-08-20T02:25:30.053Z,3.00
2022-08-20T02:28:07.021Z,3.22
2022-08-20T02:30:40.278Z,3.58
2022-08-20T02:33:11.224Z,4.85
2022-08-20T02:35:40.143Z,4.70
2022-08-20T02:38:08.817Z,5.93
2022-08-20T02:40:37.782Z,3.08
2022-08-20T02:43:06.226Z,3.45
2022-08-20T02:45:43.705Z,3.22
2022-08-20T02:48:21.064Z,3.58
2022-08-20T02:50:57.073Z,3.78
2022-08-20T02:53:26.379Z,6.78
2022-08-20T02:55:54.482Z,3.53
2022-08-20T02:58:23.215Z,3.47
2022-08-20T03:00:51.123Z,4.85
2022-08-20T03:03:22.972Z,5.72
2022-08-20T03:05:55.915Z,4.03
2022-08-20T03:08:24.382Z,7.75
2022-08-20T03:10:52.714Z,9.57
2022-08-20T03:13:21.160Z,8.27
2022-08-20T03:15:58.424Z,5.70
2022-08-20T03:19:23.894Z,4.75
2022-08-20T03:21:52.135Z,3.22
2022-08-20T03:24:20.118Z,3.92
2022-08-20T03:26:48.059Z,3.78
2022-08-20T03:29:16.029Z,3.58
2022-08-20T03:31:43.776Z,3.75
2022-08-20T03:34:12.087Z,4.20
2022-08-20T03:36:39.941Z,3.40
2022-08-20T03:39:13.496Z,5.10
2022-08-20T03:41:41.351Z,3.60
2022-08-20T03:44:10.320Z,3.45
2022-08-20T03:46:39.690Z,3.50
2022-08-20T03:49:07.611Z,3.70
2022-08-20T03:51:58.253Z,3.17
2022-08-20T03:54:23.221Z,8.10
2022-08-20T03:56:51.023Z,7.25
2022-08-20T03:59:19.012Z,4.90
2022-08-20T04:01:47.300Z,3.30
2022-08-20T04:04:15.937Z,4.50
2022-08-20T04:06:43.814Z,5.55
2022-08-20T04:09:12.519Z,3.50
2022-08-20T04:11:41.428Z,4.65
2022-08-20T04:14:11.180Z,3.53
2022-08-20T04:16:40.711Z,6.25
2022-08-20T04:19:09.449Z,3.03
2022-08-20T04:21:37.653Z,4.97
2022-08-20T04:24:06.535Z,5.00
2022-08-20T04:26:36.704Z,3.20
2022-08-20T04:29:05.396Z,3.72
2022-08-20T04:31:34.084Z,5.35
2022-08-20T04:34:08.101Z,5.18
2022-08-20T04:36:36.452Z,3.40
2022-08-20T04:39:05.427Z,4.90
2022-08-20T04:41:33.338Z,3.33
2022-08-20T04:44:02.233Z,3.35
2022-08-20T04:46:31.990Z,3.17
2022-08-20T04:49:01.153Z,3.38
2022-08-20T04:51:29.398Z,3.88
2022-08-20T04:53:59.899Z,5.72
2022-08-20T04:56:29.902Z,3.20
2022-08-20T04:59:00.784Z,6.28
2022-08-20T05:01:29.486Z,4.28
2022-08-20T05:03:58.689Z,6.65
2022-08-20T05:06:30.308Z,4.45
2022-08-20T05:08:59.976Z,3.90
2022-08-20T05:11:35.391Z,3.35
2022-08-20T05:14:05.923Z,5.05
2022-08-20T05:16:39.643Z,5.10
2022-08-20T05:19:09.837Z,5.43
2022-08-20T05:21:37.982Z,4.25
2022-08-20T05:24:06.947Z,8.73
2022-08-20T05:26:35.371Z,3.92
2022-08-20T05:29:05.327Z,3.67
2022-08-20T05:31:33.927Z,4.50
2022-08-20T05:34:11.708Z,5.70
2022-08-20T05:36:41.549Z,5.70
2022-08-20T05:39:10.508Z,3.85
2022-08-20T05:41:39.886Z,3.53
2022-08-20T05:44:14.370Z,4.45
2022-08-20T05:46:43.773Z,3.72
2022-08-20T05:49:20.248Z,4.97
2022-08-20T05:51:48.681Z,4.05
2022-08-20T05:54:17.052Z,5.18
2022-08-20T05:56:44.867Z,4.18
2022-08-20T05:59:14.526Z,6.75
2022-08-20T06:01:43.175Z,8.45
2022-08-20T06:04:28.745Z,5.25
2022-08-20T06:07:02.220Z,6.60
2022-08-20T06:09:31.899Z,5.90
2022-08-20T06:12:02.480Z,8.27
2022-08-20T06:14:30.817Z,8.95
2022-08-20T06:17:24.043Z,6.32
2022-08-20T06:19:52.260Z,5.55
2022-08-20T06:22:23.326Z,6.03
2022-08-20T06:24:54.341Z,5.85
2022-08-20T06:27:22.748Z,6.57
2022-08-20T06:29:51.549Z,7.55
2022-08-20T06:32:28.768Z,9.38
2022-08-20T06:35:02.388Z,7.32
2022-08-20T06:37:32.713Z,7.57
2022-08-20T06:40:07.520Z,6.35
2022-08-20T06:42:35.931Z,6.07
2022-08-20T06:45:07.613Z,6.43
2022-08-20T06:47:37.211Z,5.63
2022-08-20T06:50:07.941Z,5.43
2022-08-20T06:52:52.804Z,7.07
2022-08-20T06:55:21.733Z,7.18
2022-08-20T06:57:58.157Z,5.97
2022-08-20T07:00:26.763Z,6.25
2022-08-20T07:02:54.560Z,3.45
2022-08-20T07:05:22.679Z,5.07
2022-08-20T07:07:51.279Z,5.72
2022-08-20T07:10:20.909Z,4.47
2022-08-20T07:12:50.684Z,4.53
2022-08-20T07:15:21.256Z,4.57
2022-08-20T07:17:58.779Z,5.07
2022-08-20T07:20:29.212Z,6.95
2022-08-20T07:22:57.430Z,5.28
2022-08-20T07:25:26.403Z,6.05
2022-08-20T07:27:58.812Z,7.70
2022-08-20T07:30:55.943Z,4.93
2022-08-20T07:33:29.153Z,5.03
2022-08-20T07:36:04.339Z,8.50
2022-08-20T07:38:33.752Z,4.60
2022-08-20T07:41:10.242Z,4.43
2022-08-20T07:43:39.874Z,5.18
2022-08-20T07:46:09.273Z,4.28
2022-08-20T07:48:46.327Z,6.60
2022-08-20T07:51:17.212Z,6.15
2022-08-20T07:53:46.652Z,6.63
2022-08-20T07:56:18.029Z,7.85
2022-08-20T07:58:50.425Z,4.25
2022-08-20T08:01:30.602Z,4.43
2022-08-20T08:03:59.782Z,5.57
2022-08-20T08:06:31.373Z,4.75
2022-08-20T08:09:07.303Z,5.88
2022-08-20T08:11:38.284Z,3.25
2022-08-20T08:14:07.508Z,4.28
2022-08-20T08:16:36.332Z,5.47
2022-08-20T08:19:07.080Z,4.32
2022-08-20T08:21:35.013Z,3.90
2022-08-20T08:24:03.446Z,3.78
2022-08-20T08:26:31.557Z,3.83
2022-08-20T08:28:59.461Z,3.80
2022-08-20T08:31:27.493Z,5.53
2022-08-20T08:33:55.784Z,4.72
2022-08-20T08:36:24.942Z,3.63
2022-08-20T08:38:54.184Z,4.07
2022-08-20T08:41:32.452Z,4.32
2022-08-20T08:44:13.195Z,4.32
2022-08-20T08:46:43.788Z,4.18
2022-08-20T08:49:15.559Z,5.22
2022-08-20T08:52:04.783Z,4.78
2022-08-20T08:54:35.260Z,5.97
2022-08-20T08:57:03.291Z,4.43
2022-08-20T08:59:52.154Z,5.43
2022-08-20T09:02:26.265Z,6.15
2022-08-20T09:04:56.832Z,4.40
2022-08-20T09:07:27.240Z,4.97
2022-08-20T09:09:55.809Z,4.10
2022-08-20T09:12:28.017Z,5.05
2022-08-20T09:14:56.141Z,4.38
2022-08-20T09:17:24.447Z,5.05
2022-08-20T09:19:52.592Z,6.82
2022-08-20T09:22:23.182Z,4.32
2022-08-20T09:24:51.663Z,5.93
2022-08-20T09:27:19.998Z,4.10
2022-08-20T09:29:48.428Z,9.13
2022-08-20T09:32:20.926Z,6.20
2022-08-20T09:34:59.377Z,4.45
2022-08-20T09:37:36.742Z,5.85
2022-08-20T09:40:06.465Z,5.03
2022-08-20T09:42:41.027Z,6.38
2022-08-20T09:45:11.048Z,7.40
2022-08-20T09:47:46.841Z,5.22
2022-08-20T09:50:28.542Z,5.72
2022-08-20T09:52:58.280Z,4.18
2022-08-20T09:55:42.287Z,5.25
2022-08-20T09:58:21.934Z,4.85
2022-08-20T10:00:49.899Z,6.25
2022-08-20T10:03:18.173Z,5.32
2022-08-20T10:05:46.271Z,5.85
2022-08-20T10:08:14.508Z,5.22
2022-08-20T10:10:42.580Z,5.35
2022-08-20T10:13:13.252Z,5.53
2022-08-20T10:15:43.312Z,5.88
2022-08-20T10:18:12.563Z,6.57
2022-08-20T10:20:40.944Z,5.05
2022-08-20T10:23:09.014Z,5.20
2022-08-20T10:25:37.112Z,5.88
2022-08-20T10:28:06.528Z,6.20
2022-08-20T10:30:35.051Z,6.63
2022-08-20T10:33:02.999Z,6.30
2022-08-20T10:35:31.273Z,6.47
2022-08-20T10:37:59.348Z,4.75
2022-08-20T10:40:27.395Z,5.93
2022-08-20T10:42:55.141Z,5.20
2022-08-20T10:45:25.426Z,5.70
2022-08-20T10:47:53.596Z,7.20
2022-08-20T10:50:21.917Z,7.22
2022-08-20T10:52:49.878Z,12.13
2022-08-20T10:55:19.301Z,7.32
2022-08-20T10:57:47.668Z,7.05
2022-08-20T11:00:17.819Z,7.63
2022-08-20T11:02:45.854Z,8.75
2022-08-20T11:05:13.900Z,10.18
2022-08-20T11:07:50.602Z,13.02
2022-08-20T11:10:27.080Z,12.60
2022-08-20T11:12:55.593Z,11.52
2022-08-20T11:15:23.426Z,10.48
2022-08-20T11:17:51.407Z,11.30
2022-08-20T11:20:21.547Z,9.63
2022-08-20T11:22:49.523Z,9.82
2022-08-20T11:25:17.694Z,7.55
2022-08-20T11:27:47.868Z,11.95
2022-08-20T11:30:26.991Z,8.45
2022-08-20T11:32:59.449Z,9.57
2022-08-20T11:35:49.183Z,6.20
2022-08-20T11:38:17.732Z,12.27
2022-08-20T11:40:47.061Z,8.02
2022-08-20T11:43:17.008Z,9.90
2022-08-20T11:45:53.224Z,10.85
2022-08-20T11:48:21.495Z,14.00
2022-08-20T11:50:49.914Z,8.40
2022-08-20T11:53:18.080Z,5.70
2022-08-20T11:55:45.893Z,4.60
2022-08-20T11:58:13.842Z,8.90
2022-08-20T12:00:42.220Z,5.72
2022-08-20T12:03:11.582Z,5.30
2022-08-20T12:05:45.085Z,7.97
2022-08-20T12:08:27.704Z,6.95
2022-08-20T12:11:01.640Z,8.57
2022-08-20T12:13:47.393Z,7.07
2022-08-20T12:16:18.251Z,6.22
2022-08-20T12:18:47.074Z,6.72
2022-08-20T12:21:15.279Z,7.07
2022-08-20T12:23:43.488Z,8.10
2022-08-20T12:26:11.293Z,6.43
2022-08-20T12:28:39.183Z,4.43
2022-08-20T12:31:07.227Z,4.70
2022-08-20T12:33:35.194Z,4.70
2022-08-20T12:36:03.139Z,9.13
2022-08-20T12:38:30.967Z,9.18
2022-08-20T12:40:58.731Z,10.57
2022-08-20T12:43:26.610Z,9.23
2022-08-20T12:45:54.585Z,10.32
2022-08-20T12:48:22.387Z,6.28
2022-08-20T12:50:50.546Z,4.85
2022-08-20T12:53:19.065Z,8.18
2022-08-20T12:55:47.254Z,5.32
2022-08-20T12:58:15.165Z,8.68
2022-08-20T13:00:47.469Z,4.65
2022-08-20T13:03:19.868Z,7.78
2022-08-20T13:05:47.952Z,11.85
2022-08-20T13:08:17.763Z,6.53
2022-08-20T13:10:46.569Z,6.45
2022-08-20T13:13:17.706Z,9.93
2022-08-20T13:15:50.058Z,6.88
2022-08-20T13:18:18.243Z,5.65
2022-08-20T13:20:46.279Z,8.60
2022-08-20T13:23:14.270Z,9.23
2022-08-20T13:25:42.296Z,6.70
2022-08-20T13:28:10.331Z,5.75
2022-08-20T13:30:39.364Z,6.30
2022-08-20T13:33:07.334Z,6.53
2022-08-20T13:35:35.157Z,5.38
2022-08-20T13:38:03.045Z,7.28
2022-08-20T13:40:30.928Z,5.32
2022-08-20T13:43:03.152Z,6.90
2022-08-20T13:45:34.132Z,4.75
2022-08-20T13:48:01.972Z,4.40
2022-08-20T13:50:29.853Z,6.65
2022-08-20T13:52:57.772Z,6.22
2022-08-20T13:55:27.964Z,5.95
2022-08-20T13:57:57.832Z,6.80
2022-08-20T14:00:32.260Z,6.03
2022-08-20T14:03:05.731Z,6.28
2022-08-20T14:05:34.607Z,7.82
2022-08-20T14:08:11.873Z,6.20
2022-08-20T14:10:42.691Z,5.30
2022-08-20T14:13:15.299Z,7.28
2022-08-20T14:15:44.951Z,5.60
2022-08-20T14:18:14.672Z,6.93
2022-08-20T14:20:45.344Z,6.80
2022-08-20T14:23:14.503Z,5.05
2022-08-20T14:25:44.189Z,4.82
2022-08-20T14:28:25.855Z,5.57
2022-08-20T14:30:53.997Z,4.63
2022-08-20T14:33:23.266Z,6.63
2022-08-20T14:35:51.569Z,6.30
2022-08-20T14:38:19.569Z,4.25
2022-08-20T14:40:47.706Z,4.38
2022-08-20T14:43:15.445Z,5.88
2022-08-20T14:45:43.455Z,3.25
2022-08-20T14:48:11.527Z,5.30
2022-08-20T14:50:39.399Z,3.28
2022-08-20T14:53:08.301Z,3.95
2022-08-20T14:55:37.752Z,3.75
2022-08-20T14:58:10.622Z,10.05
2022-08-20T15:00:38.802Z,12.43
2022-08-20T15:03:06.937Z,9.55
2022-08-20T15:05:39.359Z,11.95
2022-08-20T15:08:08.258Z,9.52
2022-08-20T15:10:39.355Z,11.40
2022-08-20T15:13:07.683Z,7.03
2022-08-20T15:15:35.608Z,12.13
2022-08-20T15:18:04.079Z,9.27
2022-08-20T15:20:33.521Z,8.07
2022-08-20T15:23:02.066Z,8.77
2022-08-20T15:25:36.216Z,5.07
2022-08-20T15:28:07.239Z,10.05
2022-08-20T15:30:35.621Z,8.40
2022-08-20T15:33:03.641Z,10.02
2022-08-20T15:35:32.140Z,5.05
2022-08-20T15:38:00.421Z,6.85
2022-08-20T15:40:30.692Z,5.85
2022-08-20T15:43:00.518Z,6.45
2022-08-20T15:45:32.128Z,6.30
2022-08-20T15:48:12.858Z,4.97
2022-08-20T15:51:10.583Z,4.22
2022-08-20T15:54:00.214Z,4.63
2022-08-20T15:56:50.705Z,9.25
2022-08-20T15:59:37.321Z,3.47
2022-08-20T16:02:31.871Z,4.55
2022-08-20T16:05:17.992Z,4.43
2022-08-20T16:08:27.662Z,7.72
2022-08-20T16:11:01.920Z,10.35
2022-08-20T16:13:35.129Z,3.53
2022-08-20T16:16:04.316Z,2.53
2022-08-20T16:18:35.686Z,2.30
2022-08-20T16:21:09.481Z,3.65
2022-08-20T16:23:41.521Z,2.85
2022-08-20T16:26:32.762Z,6.10
2022-08-20T16:29:18.763Z,6.15
2022-08-20T16:32:14.142Z,2.28
2022-08-20T16:34:50.656Z,4.63
2022-08-20T16:37:44.262Z,6.40
2022-08-20T16:40:23.194Z,2.35
2022-08-20T16:42:53.534Z,1.85
2022-08-20T16:45:36.139Z,4.22
2022-08-20T16:48:07.413Z,4.03
2022-08-20T16:50:39.560Z,1.52
2022-08-20T16:53:14.010Z,4.90
2022-08-20T16:55:42.276Z,3.75
2022-08-20T16:58:10.308Z,2.67
2022-08-20T17:00:45.046Z,4.40
2022-08-20T17:03:31.601Z,1.65
2022-08-20T17:06:17.712Z,1.48
2022-08-20T17:08:49.904Z,2.22
2022-08-20T17:11:25.122Z,3.63
2022-08-20T17:14:08.283Z,4.00
2022-08-20T17:16:48.209Z,1.55
2022-08-20T17:19:34.488Z,1.52
2022-08-20T17:22:11.185Z,3.40
2022-08-20T17:24:40.382Z,2.90
2022-08-20T17:27:15.904Z,1.73
2022-08-20T17:29:52.557Z,3.40
2022-08-20T17:32:28.933Z,3.50
2022-08-20T17:35:00.107Z,1.45
2022-08-20T17:37:42.103Z,3.58
2022-08-20T17:40:19.796Z,1.52
2022-08-20T17:43:05.162Z,2.03
2022-08-20T17:45:46.043Z,1.77
2022-08-20T17:48:23.886Z,3.45
2022-08-20T17:50:52.735Z,1.25
2022-08-20T17:53:24.814Z,2.63
2022-08-20T17:56:01.851Z,4.63
2022-08-20T17:58:54.398Z,3.85
2022-08-20T18:01:24.603Z,3.25
2022-08-20T18:03:53.603Z,1.63
2022-08-20T18:06:51.962Z,1.75
2022-08-20T18:09:58.423Z,4.28
2022-08-20T18:13:02.163Z,5.47
2022-08-20T18:15:45.822Z,4.93
2022-08-20T18:18:27.078Z,2.97
2022-08-20T18:21:30.071Z,3.17
2022-08-20T18:24:03.153Z,3.80
2022-08-20T18:26:45.573Z,2.10
2022-08-20T18:29:14.591Z,5.32
2022-08-20T18:31:48.846Z,3.70
2022-08-20T18:34:22.427Z,3.65
2022-08-20T18:37:02.738Z,3.10
2022-08-20T18:39:32.423Z,6.85
2022-08-20T18:42:03.333Z,7.78
2022-08-20T18:44:37.271Z,4.90
2022-08-20T18:47:06.782Z,11.17
2022-08-20T18:49:39.604Z,4.53
2022-08-20T18:52:26.992Z,5.05
2022-08-20T18:54:57.490Z,2.38
2022-08-20T18:57:35.633Z,7.90
2022-08-20T19:00:15.010Z,2.17
2022-08-20T19:03:10.681Z,2.35
2022-08-20T19:08:08.905Z,2.75
2022-08-20T19:10:57.869Z,3.15
2022-08-20T19:13:40.895Z,3.83
2022-08-20T19:16:31.247Z,2.83
2022-08-20T19:18:59.278Z,2.53
2022-08-20T19:21:32.167Z,2.78
2022-08-20T19:24:03.400Z,2.10
2022-08-20T19:26:33.561Z,2.10
2022-08-20T19:29:02.556Z,3.63
2022-08-20T19:31:33.686Z,1.95
2022-08-20T19:34:21.690Z,3.85
2022-08-20T19:37:35.434Z,2.95
2022-08-20T19:40:22.025Z,4.82
2022-08-20T19:42:52.785Z,2.90
2022-08-20T19:45:34.643Z,5.57
2022-08-20T19:48:08.736Z,1.65
2022-08-20T19:50:55.451Z,3.17
2022-08-20T19:53:30.279Z,2.22
2022-08-20T19:56:22.495Z,2.60
2022-08-20T19:59:08.754Z,2.45
2022-08-20T20:01:37.160Z,2.58
2022-08-20T20:04:15.114Z,4.07
2022-08-20T20:06:46.556Z,1.80
2022-08-20T20:09:26.703Z,3.97
2022-08-20T20:12:00.180Z,3.05
2022-08-20T20:14:36.152Z,3.58
2022-08-20T20:17:09.827Z,15.38
2022-08-20T20:20:38.869Z,7.72
2022-08-20T20:23:38.785Z,10.70
2022-08-20T20:26:20.049Z,12.45
2022-08-20T20:28:51.609Z,14.13
2022-08-20T20:31:31.357Z,20.75
2022-08-20T20:34:13.424Z,14.23
2022-08-20T20:36:46.666Z,16.10
2022-08-20T20:39:44.795Z,16.35
2022-08-20T20:42:26.755Z,17.88
2022-08-20T20:44:57.608Z,18.75
2022-08-20T20:47:32.470Z,15.70
2022-08-20T20:50:09.771Z,20.42
2022-08-20T20:52:49.263Z,15.93
2022-08-20T20:55:34.282Z,15.77
2022-08-20T21:00:33.107Z,13.77
2022-08-20T21:03:03.958Z,14.00
2022-08-20T21:05:40.325Z,16.83
2022-08-20T21:08:11.993Z,17.73
2022-08-20T21:10:41.873Z,15.43
2022-08-20T21:13:10.732Z,11.13
2022-08-20T21:15:39.824Z,13.80
2022-08-20T21:18:09.348Z,11.77
2022-08-20T21:20:37.850Z,17.85
2022-08-20T21:23:08.749Z,10.90
2022-08-20T21:25:36.808Z,12.35
2022-08-20T21:28:05.183Z,15.95
2022-08-20T21:30:34.068Z,12.50
2022-08-20T21:33:02.044Z,13.88
2022-08-20T21:35:31.660Z,14.32
2022-08-20T21:37:59.578Z,13.32
2022-08-20T21:40:28.285Z,11.02
2022-08-20T21:42:59.251Z,10.85
2022-08-20T21:45:28.704Z,12.85
2022-08-20T21:47:57.840Z,13.75
2022-08-20T21:50:26.381Z,10.20
2022-08-20T21:52:59.194Z,10.80
2022-08-20T21:55:29.027Z,11.60
2022-08-20T21:57:57.662Z,11.52
2022-08-20T22:00:47.397Z,13.80
2022-08-20T22:03:16.329Z,8.18
2022-08-20T22:05:48.640Z,9.48
2022-08-20T22:08:18.633Z,10.63
2022-08-20T22:10:46.918Z,13.65
2022-08-20T22:13:14.919Z,11.55
2022-08-20T22:15:43.811Z,6.47
2022-08-20T22:18:11.727Z,8.77
2022-08-20T22:20:40.934Z,8.35
2022-08-20T22:23:12.069Z,11.48
2022-08-20T22:25:43.117Z,14.18
2022-08-20T22:28:10.980Z,9.50
2022-08-20T22:30:42.201Z,13.07
2022-08-20T22:33:14.391Z,7.68
2022-08-20T22:35:49.688Z,6.90
2022-08-20T22:38:18.534Z,11.77
2022-08-20T22:40:48.944Z,6.90
2022-08-20T22:43:16.941Z,7.80
2022-08-20T22:45:49.015Z,6.05
2022-08-20T22:48:21.423Z,6.22
2022-08-20T22:50:50.240Z,8.25
2022-08-20T22:53:21.605Z,9.70
2022-08-20T22:55:50.003Z,6.82
2022-08-20T22:58:19.411Z,5.07
2022-08-20T23:00:58.693Z,5.18
2022-08-20T23:03:40.214Z,5.75
2022-08-20T23:06:09.120Z,6.10
2022-08-20T23:08:42.254Z,7.55
2022-08-20T23:11:13.236Z,9.82
2022-08-20T23:13:41.020Z,4.75
2022-08-20T23:16:08.905Z,7.05
2022-08-20T23:18:36.731Z,5.63
2022-08-20T23:21:05.166Z,5.32
2022-08-20T23:23:33.037Z,5.57
2022-08-20T23:26:01.509Z,5.35
2022-08-20T23:28:32.078Z,6.13
2022-08-20T23:31:00.081Z,5.13
2022-08-20T23:33:27.895Z,6.97
2022-08-20T23:35:56.103Z,4.55
2022-08-20T23:38:23.864Z,5.30
2022-08-20T23:40:51.649Z,6.68
2022-08-20T23:43:19.588Z,6.60
2022-08-20T23:45:47.784Z,7.63
2022-08-20T23:48:15.969Z,6.20
2022-08-20T23:50:43.973Z,6.03
2022-08-20T23:53:14.277Z,4.35
2022-08-20T23:55:45.056Z,6.63
2022-08-20T23:58:13.065Z,6.72
